sensor_id;sensor_type;location;lat;lon;timestamp;P1;durP1;ratioP1;P2;durP2;ratioP2
66870;SDS011;53780;44.998;9.926;2022-09-16T05:33:18;10.20;;;4.30;;
66870;SDS011;53780;44.998;9.926;2022-09-16T05:36:22;13.90;;;4.45;;
66870;SDS011;53780;44.998;9.926;2022-09-16T05:39:27;9.63;;;4.32;;
66870;SDS011;53780;44.998;9.926;2022-09-16T05:42:30;12.07;;;4.65;;
66870;SDS011;53780;44.998;9.926;2022-09-16T05:45:34;10.48;;;4.40;;
66870;SDS011;53780;44.998;9.926;2022-09-16T05:48:38;9.40;;;4.07;;
66870;SDS011;53780;44.998;9.926;2022-09-16T05:51:42;9.90;;;4.00;;
66870;SDS011;53780;44.998;9.926;2022-09-16T05:54:45;12.30;;;4.40;;
66870;SDS011;53780;44.998;9.926;2022-09-16T05:57:49;13.77;;;4.40;;
66870;SDS011;53780;44.998;9.926;2022-09-16T06:01:04;10.32;;;4.20;;
66870;SDS011;53780;44.998;9.926;2022-09-16T06:04:10;8.93;;;4.33;;
66870;SDS011;53780;44.998;9.926;2022-09-16T06:07:16;9.98;;;4.47;;
66870;SDS011;53780;44.998;9.926;2022-09-16T06:10:19;9.85;;;4.38;;
66870;SDS011;53780;44.998;9.926;2022-09-16T06:13:23;14.60;;;4.50;;
66870;SDS011;53780;44.998;9.926;2022-09-16T06:16:27;11.57;;;4.30;;
66870;SDS011;53780;44.998;9.926;2022-09-16T06:19:35;11.53;;;4.40;;
66870;SDS011;53780;44.998;9.926;2022-09-16T06:22:39;13.05;;;5.00;;
66870;SDS011;53780;44.998;9.926;2022-09-16T06:25:43;16.75;;;5.78;;
66870;SDS011;53780;44.998;9.926;2022-09-16T06:28:48;11.90;;;5.15;;
66870;SDS011;53780;44.998;9.926;2022-09-16T06:31:53;12.05;;;5.13;;
66870;SDS011;53780;44.998;9.926;2022-09-16T06:34:57;12.33;;;5.47;;
66870;SDS011;53780;44.998;9.926;2022-09-16T06:38:01;15.35;;;7.28;;
66870;SDS011;53780;44.998;9.926;2022-09-16T06:41:06;17.42;;;8.80;;
66870;SDS011;53780;44.998;9.926;2022-09-16T06:44:12;16.17;;;9.00;;
66870;SDS011;53780;44.998;9.926;2022-09-16T06:47:16;22.50;;;9.88;;
66870;SDS011;53780;44.998;9.926;2022-09-16T06:50:20;19.17;;;9.63;;
66870;SDS011;53780;44.998;9.926;2022-09-16T06:53:23;20.63;;;11.50;;
66870;SDS011;53780;44.998;9.926;2022-09-16T06:56:29;23.40;;;12.02;;
66870;SDS011;53780;44.998;9.926;2022-09-16T06:59:33;26.77;;;11.35;;
66870;SDS011;53780;44.998;9.926;2022-09-16T07:02:37;21.58;;;11.85;;
66870;SDS011;53780;44.998;9.926;2022-09-16T07:05:41;21.57;;;12.43;;
66870;SDS011;53780;44.998;9.926;2022-09-16T07:08:45;23.85;;;12.77;;
66870;SDS011;53780;44.998;9.926;2022-09-16T07:11:49;24.17;;;13.20;;
66870;SDS011;53780;44.998;9.926;2022-09-16T07:14:53;22.85;;;12.10;;
66870;SDS011;53780;44.998;9.926;2022-09-16T07:17:56;22.45;;;12.60;;
66870;SDS011;53780;44.998;9.926;2022-09-16T07:21:04;20.93;;;11.60;;
66870;SDS011;53780;44.998;9.926;2022-09-16T07:24:10;22.33;;;12.52;;
66870;SDS011;53780;44.998;9.926;2022-09-16T07:27:15;22.40;;;12.75;;
66870;SDS011;53780;44.998;9.926;2022-09-16T07:30:19;23.35;;;12.90;;
66870;SDS011;53780;44.998;9.926;2022-09-16T07:33:23;22.95;;;11.98;;
66870;SDS011;53780;44.998;9.926;2022-09-16T07:36:28;21.40;;;11.53;;
66870;SDS011;53780;44.998;9.926;2022-09-16T07:39:36;23.77;;;12.77;;
66870;SDS011;53780;44.998;9.926;2022-09-16T07:42:40;20.50;;;12.00;;
66870;SDS011;53780;44.998;9.926;2022-09-16T07:45:45;22.08;;;11.98;;
66870;SDS011;53780;44.998;9.926;2022-09-16T07:48:50;21.58;;;12.82;;
66870;SDS011;53780;44.998;9.926;2022-09-16T07:51:54;20.83;;;12.37;;
66870;SDS011;53780;44.998;9.926;2022-09-16T07:54:58;19.63;;;12.00;;
66870;SDS011;53780;44.998;9.926;2022-09-16T07:58:02;25.15;;;13.30;;
66870;SDS011;53780;44.998;9.926;2022-09-16T08:01:06;22.25;;;12.80;;
66870;SDS011;53780;44.998;9.926;2022-09-16T08:04:11;24.88;;;13.23;;
66870;SDS011;53780;44.998;9.926;2022-09-16T08:07:16;26.27;;;13.37;;
66870;SDS011;53780;44.998;9.926;2022-09-16T08:10:20;22.92;;;13.57;;
66870;SDS011;53780;44.998;9.926;2022-09-16T08:13:24;20.98;;;13.95;;
66870;SDS011;53780;44.998;9.926;2022-09-16T08:16:29;28.05;;;13.40;;
66870;SDS011;53780;44.998;9.926;2022-09-16T08:19:33;27.15;;;13.98;;
66870;SDS011;53780;44.998;9.926;2022-09-16T08:22:37;23.80;;;13.17;;
66870;SDS011;53780;44.998;9.926;2022-09-16T08:25:41;27.85;;;14.18;;
66870;SDS011;53780;44.998;9.926;2022-09-16T08:28:45;26.98;;;13.20;;
66870;SDS011;53780;44.998;9.926;2022-09-16T08:31:51;23.85;;;13.20;;
66870;SDS011;53780;44.998;9.926;2022-09-16T08:34:55;21.70;;;12.60;;
66870;SDS011;53780;44.998;9.926;2022-09-16T08:37:59;23.03;;;11.77;;
66870;SDS011;53780;44.998;9.926;2022-09-16T08:41:06;20.65;;;10.88;;
66870;SDS011;53780;44.998;9.926;2022-09-16T08:50:45;17.33;;;9.52;;
66870;SDS011;53780;44.998;9.926;2022-09-16T08:57:03;23.20;;;8.93;;
66870;SDS011;53780;44.998;9.926;2022-09-16T09:00:13;19.42;;;9.80;;
66870;SDS011;53780;44.998;9.926;2022-09-16T09:27:53;21.30;;;8.43;;
66870;SDS011;53780;44.998;9.926;2022-09-16T09:38:22;18.20;;;8.77;;
66870;SDS011;53780;44.998;9.926;2022-09-16T09:41:47;37.80;;;12.05;;
66870;SDS011;53780;44.998;9.926;2022-09-16T09:48:20;19.02;;;9.13;;
66870;SDS011;53780;44.998;9.926;2022-09-16T09:51:34;28.73;;;9.10;;
66870;SDS011;53780;44.998;9.926;2022-09-16T09:54:42;17.77;;;8.10;;
66870;SDS011;53780;44.998;9.926;2022-09-16T10:01:11;21.10;;;9.00;;
66870;SDS011;53780;44.998;9.926;2022-09-16T10:04:15;23.10;;;8.90;;
66870;SDS011;53780;44.998;9.926;2022-09-16T10:07:20;20.70;;;8.65;;
66870;SDS011;53780;44.998;9.926;2022-09-16T10:10:28;25.63;;;9.90;;
66870;SDS011;53780;44.998;9.926;2022-09-16T10:13:35;18.17;;;8.82;;
66870;SDS011;53780;44.998;9.926;2022-09-16T10:16:50;18.43;;;7.87;;
66870;SDS011;53780;44.998;9.926;2022-09-16T10:20:00;18.55;;;5.97;;
66870;SDS011;53780;44.998;9.926;2022-09-16T10:23:13;17.60;;;6.82;;
66870;SDS011;53780;44.998;9.926;2022-09-16T10:26:27;13.68;;;5.43;;
66870;SDS011;53780;44.998;9.926;2022-09-16T10:29:31;13.55;;;5.32;;
66870;SDS011;53780;44.998;9.926;2022-09-16T10:36:31;15.65;;;5.78;;
66870;SDS011;53780;44.998;9.926;2022-09-16T10:39:30;15.93;;;5.88;;
66870;SDS011;53780;44.998;9.926;2022-09-16T10:42:35;19.13;;;6.20;;
66870;SDS011;53780;44.998;9.926;2022-09-16T10:45:46;13.70;;;5.15;;
66870;SDS011;53780;44.998;9.926;2022-09-16T10:48:53;17.03;;;5.17;;
66870;SDS011;53780;44.998;9.926;2022-09-16T10:52:07;16.13;;;6.43;;
66870;SDS011;53780;44.998;9.926;2022-09-16T10:55:26;17.23;;;7.43;;
66870;SDS011;53780;44.998;9.926;2022-09-16T10:58:32;15.13;;;6.40;;
66870;SDS011;53780;44.998;9.926;2022-09-16T11:15:13;15.80;;;6.18;;
66870;SDS011;53780;44.998;9.926;2022-09-16T11:18:52;14.35;;;5.90;;
66870;SDS011;53780;44.998;9.926;2022-09-16T11:29:04;18.52;;;7.40;;
66870;SDS011;53780;44.998;9.926;2022-09-16T11:39:10;14.53;;;6.07;;
66870;SDS011;53780;44.998;9.926;2022-09-16T11:42:27;10.75;;;5.70;;
66870;SDS011;53780;44.998;9.926;2022-09-16T12:02:02;15.15;;;6.93;;
66870;SDS011;53780;44.998;9.926;2022-09-16T12:05:24;15.27;;;6.05;;
66870;SDS011;53780;44.998;9.926;2022-09-16T12:12:07;16.53;;;6.50;;
66870;SDS011;53780;44.998;9.926;2022-09-16T12:18:30;14.00;;;6.00;;
66870;SDS011;53780;44.998;9.926;2022-09-16T12:22:03;12.65;;;4.90;;
66870;SDS011;53780;44.998;9.926;2022-09-16T12:29:05;11.37;;;4.10;;
66870;SDS011;53780;44.998;9.926;2022-09-16T12:32:39;13.32;;;5.10;;
66870;SDS011;53780;44.998;9.926;2022-09-16T12:39:22;11.75;;;4.40;;
66870;SDS011;53780;44.998;9.926;2022-09-16T12:42:43;16.63;;;5.20;;
66870;SDS011;53780;44.998;9.926;2022-09-16T12:46:05;13.97;;;3.87;;
66870;SDS011;53780;44.998;9.926;2022-09-16T13:03:15;16.50;;;5.13;;
66870;SDS011;53780;44.998;9.926;2022-09-16T13:06:23;16.73;;;4.90;;
66870;SDS011;53780;44.998;9.926;2022-09-16T13:09:31;10.80;;;4.30;;
66870;SDS011;53780;44.998;9.926;2022-09-16T13:12:41;9.93;;;3.47;;
66870;SDS011;53780;44.998;9.926;2022-09-16T13:15:54;14.50;;;4.00;;
66870;SDS011;53780;44.998;9.926;2022-09-16T13:19:18;11.70;;;4.00;;
66870;SDS011;53780;44.998;9.926;2022-09-16T13:28:53;13.23;;;3.70;;
66870;SDS011;53780;44.998;9.926;2022-09-16T13:32:00;14.15;;;4.53;;
66870;SDS011;53780;44.998;9.926;2022-09-16T13:36:01;10.27;;;3.93;;
66870;SDS011;53780;44.998;9.926;2022-09-16T13:38:36;15.13;;;4.38;;
66870;SDS011;53780;44.998;9.926;2022-09-16T13:41:46;10.90;;;4.53;;
66870;SDS011;53780;44.998;9.926;2022-09-16T13:44:50;15.65;;;4.80;;
66870;SDS011;53780;44.998;9.926;2022-09-16T13:47:54;13.30;;;5.50;;
66870;SDS011;53780;44.998;9.926;2022-09-16T13:50:58;13.30;;;5.67;;
66870;SDS011;53780;44.998;9.926;2022-09-16T13:54:03;14.48;;;5.47;;
66870;SDS011;53780;44.998;9.926;2022-09-16T13:57:25;15.77;;;5.82;;
66870;SDS011;53780;44.998;9.926;2022-09-16T14:00:42;13.05;;;5.30;;
66870;SDS011;53780;44.998;9.926;2022-09-16T14:07:06;15.47;;;5.07;;
66870;SDS011;53780;44.998;9.926;2022-09-16T14:13:39;7.60;;;2.88;;
66870;SDS011;53780;44.998;9.926;2022-09-16T14:16:46;5.95;;;2.20;;
66870;SDS011;53780;44.998;9.926;2022-09-16T14:19:52;8.43;;;2.10;;
66870;SDS011;53780;44.998;9.926;2022-09-16T14:23:24;6.33;;;2.00;;
66870;SDS011;53780;44.998;9.926;2022-09-16T14:26:28;6.78;;;1.92;;
66870;SDS011;53780;44.998;9.926;2022-09-16T14:29:32;5.35;;;1.90;;
66870;SDS011;53780;44.998;9.926;2022-09-16T14:32:36;6.10;;;1.50;;
66870;SDS011;53780;44.998;9.926;2022-09-16T14:35:41;4.72;;;1.45;;
66870;SDS011;53780;44.998;9.926;2022-09-16T14:38:53;4.27;;;1.10;;
66870;SDS011;53780;44.998;9.926;2022-09-16T14:42:04;4.72;;;1.63;;
66870;SDS011;53780;44.998;9.926;2022-09-16T14:45:12;6.40;;;1.48;;
66870;SDS011;53780;44.998;9.926;2022-09-16T14:51:56;5.60;;;1.50;;
66870;SDS011;53780;44.998;9.926;2022-09-16T14:55:02;6.50;;;1.47;;
66870;SDS011;53780;44.998;9.926;2022-09-16T14:58:15;5.28;;;1.30;;
66870;SDS011;53780;44.998;9.926;2022-09-16T15:01:23;7.80;;;1.60;;
66870;SDS011;53780;44.998;9.926;2022-09-16T15:04:32;6.00;;;1.42;;
66870;SDS011;53780;44.998;9.926;2022-09-16T15:07:40;6.28;;;1.45;;
66870;SDS011;53780;44.998;9.926;2022-09-16T15:10:50;13.53;;;1.60;;
66870;SDS011;53780;44.998;9.926;2022-09-16T15:13:58;7.07;;;1.58;;
66870;SDS011;53780;44.998;9.926;2022-09-16T15:17:02;5.32;;;1.38;;
66870;SDS011;53780;44.998;9.926;2022-09-16T15:20:20;5.80;;;1.52;;
66870;SDS011;53780;44.998;9.926;2022-09-16T15:23:26;5.47;;;1.60;;
66870;SDS011;53780;44.998;9.926;2022-09-16T15:26:41;7.30;;;1.23;;
66870;SDS011;53780;44.998;9.926;2022-09-16T15:29:48;6.80;;;1.40;;
66870;SDS011;53780;44.998;9.926;2022-09-16T15:32:58;6.10;;;1.42;;
66870;SDS011;53780;44.998;9.926;2022-09-16T15:36:02;7.10;;;1.38;;
66870;SDS011;53780;44.998;9.926;2022-09-16T15:39:23;5.60;;;1.65;;
66870;SDS011;53780;44.998;9.926;2022-09-16T15:42:33;5.60;;;1.27;;
66870;SDS011;53780;44.998;9.926;2022-09-16T15:45:36;6.85;;;1.70;;
66870;SDS011;53780;44.998;9.926;2022-09-16T15:48:42;7.53;;;1.83;;
66870;SDS011;53780;44.998;9.926;2022-09-16T15:51:49;5.82;;;1.42;;
66870;SDS011;53780;44.998;9.926;2022-09-16T15:54:56;7.47;;;1.95;;
66870;SDS011;53780;44.998;9.926;2022-09-16T15:58:16;4.37;;;1.30;;
66870;SDS011;53780;44.998;9.926;2022-09-16T16:01:35;6.40;;;1.40;;
66870;SDS011;53780;44.998;9.926;2022-09-16T16:04:43;5.38;;;1.25;;
66870;SDS011;53780;44.998;9.926;2022-09-16T16:07:51;7.90;;;1.50;;
66870;SDS011;53780;44.998;9.926;2022-09-16T16:11:05;6.70;;;1.20;;
66870;SDS011;53780;44.998;9.926;2022-09-16T16:14:22;4.27;;;1.23;;
66870;SDS011;53780;44.998;9.926;2022-09-16T16:17:30;7.07;;;1.50;;
66870;SDS011;53780;44.998;9.926;2022-09-16T16:20:35;7.65;;;2.05;;
66870;SDS011;53780;44.998;9.926;2022-09-16T16:23:39;12.30;;;3.28;;
66870;SDS011;53780;44.998;9.926;2022-09-16T16:26:43;13.35;;;2.20;;
66870;SDS011;53780;44.998;9.926;2022-09-16T16:29:47;13.13;;;1.80;;
66870;SDS011;53780;44.998;9.926;2022-09-16T16:32:52;7.78;;;1.60;;
66870;SDS011;53780;44.998;9.926;2022-09-16T16:35:55;10.35;;;1.48;;
66870;SDS011;53780;44.998;9.926;2022-09-16T16:38:59;8.55;;;1.50;;
66870;SDS011;53780;44.998;9.926;2022-09-16T16:42:04;5.43;;;1.60;;
66870;SDS011;53780;44.998;9.926;2022-09-16T16:45:09;6.80;;;1.70;;
66870;SDS011;53780;44.998;9.926;2022-09-16T16:48:15;6.15;;;1.60;;
66870;SDS011;53780;44.998;9.926;2022-09-16T16:51:18;4.35;;;1.52;;
66870;SDS011;53780;44.998;9.926;2022-09-16T16:54:23;6.18;;;1.48;;
66870;SDS011;53780;44.998;9.926;2022-09-16T16:57:27;8.63;;;1.80;;
66870;SDS011;53780;44.998;9.926;2022-09-16T17:00:32;5.67;;;1.30;;
66870;SDS011;53780;44.998;9.926;2022-09-16T17:03:38;8.45;;;1.70;;
66870;SDS011;53780;44.998;9.926;2022-09-16T17:06:43;6.40;;;1.40;;
66870;SDS011;53780;44.998;9.926;2022-09-16T17:09:47;6.03;;;1.50;;
66870;SDS011;53780;44.998;9.926;2022-09-16T17:12:51;6.20;;;1.40;;
66870;SDS011;53780;44.998;9.926;2022-09-16T17:15:55;5.43;;;1.30;;
66870;SDS011;53780;44.998;9.926;2022-09-16T17:19:00;7.25;;;1.50;;
66870;SDS011;53780;44.998;9.926;2022-09-16T17:22:05;6.38;;;1.48;;
66870;SDS011;53780;44.998;9.926;2022-09-16T17:25:10;7.15;;;1.50;;
66870;SDS011;53780;44.998;9.926;2022-09-16T17:28:15;6.55;;;1.40;;
66870;SDS011;53780;44.998;9.926;2022-09-16T17:31:21;7.40;;;1.30;;
66870;SDS011;53780;44.998;9.926;2022-09-16T17:34:27;7.35;;;1.65;;
66870;SDS011;53780;44.998;9.926;2022-09-16T17:37:31;5.68;;;1.50;;
66870;SDS011;53780;44.998;9.926;2022-09-16T17:40:35;5.30;;;1.33;;
66870;SDS011;53780;44.998;9.926;2022-09-16T17:43:40;5.40;;;1.50;;
66870;SDS011;53780;44.998;9.926;2022-09-16T17:46:45;4.77;;;1.50;;
66870;SDS011;53780;44.998;9.926;2022-09-16T17:49:49;5.95;;;1.50;;
66870;SDS011;53780;44.998;9.926;2022-09-16T17:52:55;5.38;;;1.30;;
66870;SDS011;53780;44.998;9.926;2022-09-16T17:56:03;6.60;;;1.40;;
66870;SDS011;53780;44.998;9.926;2022-09-16T17:59:12;7.85;;;1.38;;
66870;SDS011;53780;44.998;9.926;2022-09-16T18:02:19;7.23;;;1.50;;
66870;SDS011;53780;44.998;9.926;2022-09-16T18:05:24;7.38;;;1.67;;
66870;SDS011;53780;44.998;9.926;2022-09-16T18:08:28;7.75;;;1.48;;
66870;SDS011;53780;44.998;9.926;2022-09-16T18:11:32;5.45;;;1.20;;
66870;SDS011;53780;44.998;9.926;2022-09-16T18:14:37;7.70;;;1.50;;
66870;SDS011;53780;44.998;9.926;2022-09-16T18:17:42;7.43;;;1.50;;
66870;SDS011;53780;44.998;9.926;2022-09-16T18:20:50;7.32;;;1.42;;
66870;SDS011;53780;44.998;9.926;2022-09-16T18:23:58;6.32;;;1.40;;
66870;SDS011;53780;44.998;9.926;2022-09-16T18:27:05;5.07;;;1.45;;
66870;SDS011;53780;44.998;9.926;2022-09-16T18:30:09;7.60;;;1.25;;
66870;SDS011;53780;44.998;9.926;2022-09-16T18:33:13;5.47;;;1.30;;
66870;SDS011;53780;44.998;9.926;2022-09-16T18:36:18;7.22;;;1.50;;
66870;SDS011;53780;44.998;9.926;2022-09-16T18:39:24;9.20;;;1.25;;
66870;SDS011;53780;44.998;9.926;2022-09-16T18:42:28;4.60;;;0.98;;
66870;SDS011;53780;44.998;9.926;2022-09-16T18:45:32;11.75;;;1.50;;
66870;SDS011;53780;44.998;9.926;2022-09-16T18:48:37;4.97;;;1.33;;
66870;SDS011;53780;44.998;9.926;2022-09-16T18:51:47;5.05;;;1.20;;
66870;SDS011;53780;44.998;9.926;2022-09-16T18:54:52;5.63;;;1.13;;
66870;SDS011;53780;44.998;9.926;2022-09-16T18:57:56;6.45;;;1.70;;
66870;SDS011;53780;44.998;9.926;2022-09-16T19:01:05;8.48;;;1.30;;
66870;SDS011;53780;44.998;9.926;2022-09-16T19:04:30;5.57;;;0.90;;
66870;SDS011;53780;44.998;9.926;2022-09-16T19:07:36;5.88;;;1.38;;
66870;SDS011;53780;44.998;9.926;2022-09-16T19:10:40;4.28;;;1.30;;
66870;SDS011;53780;44.998;9.926;2022-09-16T19:13:44;4.95;;;1.20;;
66870;SDS011;53780;44.998;9.926;2022-09-16T19:16:48;7.22;;;1.85;;
66870;SDS011;53780;44.998;9.926;2022-09-16T19:19:53;4.13;;;1.13;;
66870;SDS011;53780;44.998;9.926;2022-09-16T19:22:58;4.53;;;1.05;;
66870;SDS011;53780;44.998;9.926;2022-09-16T19:26:02;5.55;;;1.50;;
66870;SDS011;53780;44.998;9.926;2022-09-16T19:29:07;6.88;;;1.50;;
66870;SDS011;53780;44.998;9.926;2022-09-16T19:32:11;7.13;;;1.80;;
66870;SDS011;53780;44.998;9.926;2022-09-16T19:35:16;8.40;;;1.73;;
66870;SDS011;53780;44.998;9.926;2022-09-16T19:38:21;5.95;;;1.25;;
66870;SDS011;53780;44.998;9.926;2022-09-16T19:41:27;6.05;;;1.20;;
66870;SDS011;53780;44.998;9.926;2022-09-16T19:44:33;5.20;;;1.10;;
66870;SDS011;53780;44.998;9.926;2022-09-16T19:47:37;7.93;;;1.00;;
66870;SDS011;53780;44.998;9.926;2022-09-16T19:50:40;6.80;;;1.60;;
66870;SDS011;53780;44.998;9.926;2022-09-16T19:53:44;5.05;;;1.10;;
66870;SDS011;53780;44.998;9.926;2022-09-16T19:56:51;6.60;;;1.30;;
66870;SDS011;53780;44.998;9.926;2022-09-16T19:59:56;6.15;;;1.05;;
66870;SDS011;53780;44.998;9.926;2022-09-16T20:02:59;6.47;;;1.20;;
66870;SDS011;53780;44.998;9.926;2022-09-16T20:06:08;5.77;;;1.10;;
66870;SDS011;53780;44.998;9.926;2022-09-16T20:09:13;5.35;;;1.45;;
66870;SDS011;53780;44.998;9.926;2022-09-16T20:12:18;4.78;;;1.50;;
66870;SDS011;53780;44.998;9.926;2022-09-16T20:15:21;6.30;;;1.00;;
66870;SDS011;53780;44.998;9.926;2022-09-16T20:18:29;7.18;;;1.20;;
66870;SDS011;53780;44.998;9.926;2022-09-16T20:21:34;4.53;;;1.10;;
66870;SDS011;53780;44.998;9.926;2022-09-16T20:24:40;4.95;;;1.15;;
66870;SDS011;53780;44.998;9.926;2022-09-16T20:27:44;5.47;;;1.23;;
66870;SDS011;53780;44.998;9.926;2022-09-16T20:30:47;6.20;;;1.40;;
66870;SDS011;53780;44.998;9.926;2022-09-16T20:33:52;4.70;;;1.30;;
66870;SDS011;53780;44.998;9.926;2022-09-16T20:36:56;7.77;;;1.13;;
66870;SDS011;53780;44.998;9.926;2022-09-16T20:40:00;5.03;;;1.30;;
66870;SDS011;53780;44.998;9.926;2022-09-16T20:43:04;4.97;;;1.48;;
66870;SDS011;53780;44.998;9.926;2022-09-16T20:46:19;7.35;;;1.30;;
66870;SDS011;53780;44.998;9.926;2022-09-16T20:49:25;5.95;;;1.25;;
